createdAt,value
2019-05-03T00:00:22.296Z,7.60
2019-05-03T00:02:55.879Z,9.90
2019-05-03T00:05:32.560Z,8.17
2019-05-03T00:08:02.984Z,7.03
2019-05-03T00:10:31.846Z,7.67
2019-05-03T00:13:01.900Z,7.10
2019-05-03T00:15:32.459Z,7.70
2019-05-03T00:18:02.372Z,7.40
2019-05-03T00:20:32.654Z,8.07
2019-05-03T00:23:02.925Z,9.83
2019-05-03T00:25:32.657Z,8.50
2019-05-03T00:28:01.940Z,8.90
2019-05-03T00:30:32.058Z,8.10
2019-05-03T00:33:02.732Z,10.50
2019-05-03T00:35:51.948Z,10.17
2019-05-03T00:38:21.800Z,9.10
2019-05-03T00:40:52.238Z,8.97
2019-05-03T00:43:22.281Z,8.97
2019-05-03T00:45:51.669Z,8.70
2019-05-03T00:48:21.971Z,9.80
2019-05-03T00:50:51.769Z,10.20
2019-05-03T00:53:22.232Z,9.47
2019-05-03T00:55:52.459Z,9.27
2019-05-03T00:58:22.404Z,11.00
2019-05-03T01:00:52.452Z,10.90
2019-05-03T01:03:22.514Z,10.50
2019-05-03T01:05:52.917Z,9.97
2019-05-03T01:08:41.887Z,11.77
2019-05-03T01:11:12.564Z,12.03
2019-05-03T01:13:42.329Z,10.07
2019-05-03T01:16:12.627Z,11.43
2019-05-03T01:18:41.749Z,13.17
2019-05-03T01:21:11.717Z,12.10
2019-05-03T01:23:41.966Z,11.67
2019-05-03T01:26:11.876Z,12.50
2019-05-03T01:28:42.494Z,13.23
2019-05-03T01:31:11.972Z,11.60
2019-05-03T01:33:42.507Z,11.70
2019-05-03T01:36:12.008Z,13.17
2019-05-03T01:38:42.348Z,13.10
2019-05-03T01:41:12.300Z,14.40
2019-05-03T01:43:41.816Z,12.30
2019-05-03T01:46:11.995Z,12.70
2019-05-03T01:48:55.905Z,13.40
2019-05-03T01:51:42.050Z,13.40
2019-05-03T01:54:12.268Z,13.67
2019-05-03T01:56:49.962Z,19.63
2019-05-03T01:59:12.338Z,18.10
2019-05-03T02:01:45.397Z,14.23
2019-05-03T02:04:24.734Z,13.83
2019-05-03T02:06:53.440Z,13.53
2019-05-03T02:09:21.995Z,13.77
2019-05-03T02:11:52.506Z,12.93
2019-05-03T02:14:22.166Z,13.60
2019-05-03T02:16:52.299Z,15.83
2019-05-03T02:19:21.982Z,14.00
2019-05-03T02:21:52.317Z,12.77
2019-05-03T02:24:22.123Z,15.90
2019-05-03T02:26:52.898Z,16.20
2019-05-03T02:29:21.902Z,19.43
2019-05-03T02:31:53.274Z,16.63
2019-05-03T02:34:23.708Z,16.20
2019-05-03T02:36:53.722Z,17.50
2019-05-03T02:39:22.887Z,17.70
2019-05-03T02:41:58.595Z,17.93
2019-05-03T02:44:23.018Z,18.23
2019-05-03T02:46:56.034Z,21.57
2019-05-03T02:49:25.885Z,16.07
2019-05-03T02:51:55.416Z,15.63
2019-05-03T02:54:27.013Z,16.33
2019-05-03T02:57:15.027Z,15.73
2019-05-03T02:59:45.271Z,14.83
2019-05-03T03:02:15.178Z,14.83
2019-05-03T03:04:45.514Z,15.63
2019-05-03T03:07:15.193Z,14.93
2019-05-03T03:09:45.256Z,16.10
2019-05-03T03:12:15.277Z,15.27
2019-05-03T03:14:45.841Z,15.00
2019-05-03T03:17:17.335Z,16.50
2019-05-03T03:19:48.496Z,18.67
2019-05-03T03:22:20.007Z,12.33
2019-05-03T03:24:51.713Z,13.07
2019-05-03T03:27:25.646Z,13.43
2019-05-03T03:30:07.830Z,12.40
2019-05-03T03:32:39.813Z,15.83
2019-05-03T03:35:13.041Z,16.30
2019-05-03T03:37:41.810Z,14.40
2019-05-03T03:40:10.996Z,16.53
2019-05-03T03:42:40.689Z,15.00
2019-05-03T03:45:09.716Z,17.17
2019-05-03T03:47:39.091Z,16.43
2019-05-03T03:50:08.371Z,17.70
2019-05-03T03:52:40.018Z,17.27
2019-05-03T03:55:08.956Z,18.63
2019-05-03T03:57:37.753Z,16.17
2019-05-03T04:00:10.126Z,16.40
2019-05-03T04:02:39.511Z,18.47
2019-05-03T04:05:08.584Z,14.90
2019-05-03T04:07:38.571Z,19.23
2019-05-03T04:10:08.277Z,15.53
2019-05-03T04:12:37.096Z,16.93
2019-05-03T04:15:10.547Z,17.63
2019-05-03T04:17:56.609Z,17.63
2019-05-03T04:20:28.016Z,17.77
2019-05-03T04:22:56.806Z,17.67
2019-05-03T04:25:26.206Z,17.20
2019-05-03T04:27:56.090Z,16.50
2019-05-03T04:30:25.733Z,16.17
2019-05-03T04:32:56.463Z,16.33
2019-05-03T04:35:26.507Z,19.07
2019-05-03T04:37:56.069Z,18.93
2019-05-03T04:40:26.077Z,20.33
2019-05-03T04:42:55.725Z,18.23
2019-05-03T04:45:25.546Z,18.40
2019-05-03T04:47:55.963Z,18.00
2019-05-03T04:50:25.713Z,18.73
2019-05-03T04:52:56.785Z,19.60
2019-05-03T04:55:26.569Z,19.53
2019-05-03T04:57:56.246Z,15.97
2019-05-03T05:00:25.837Z,18.03
2019-05-03T05:02:55.336Z,18.03
2019-05-03T05:05:26.145Z,17.70
2019-05-03T05:07:55.808Z,18.87
2019-05-03T05:10:26.076Z,19.67
2019-05-03T05:12:55.367Z,16.80
2019-05-03T05:15:26.493Z,14.57
2019-05-03T05:18:16.180Z,17.20
2019-05-03T05:20:46.802Z,16.53
2019-05-03T05:23:15.520Z,17.63
2019-05-03T05:25:57.895Z,18.63
2019-05-03T05:28:28.168Z,15.87
2019-05-03T05:30:56.815Z,18.03
2019-05-03T05:33:25.540Z,17.13
2019-05-03T05:36:01.521Z,15.23
2019-05-03T05:38:30.159Z,16.33
2019-05-03T05:40:58.892Z,15.00
2019-05-03T05:43:27.657Z,16.97
2019-05-03T05:45:58.785Z,16.40
2019-05-03T05:48:40.254Z,16.97
2019-05-03T05:51:09.081Z,19.50
2019-05-03T05:53:37.622Z,19.13
2019-05-03T05:56:19.923Z,15.77
2019-05-03T05:58:50.065Z,14.83
2019-05-03T06:01:20.432Z,16.63
2019-05-03T06:03:49.199Z,17.37
2019-05-03T06:09:25.509Z,13.47
2019-05-03T06:12:07.407Z,16.20
2019-05-03T06:14:37.879Z,16.27
2019-05-03T06:17:08.225Z,14.57
2019-05-03T06:19:38.474Z,16.60
2019-05-03T06:22:15.348Z,17.33
2019-05-03T06:24:51.570Z,13.33
2019-05-03T06:27:21.853Z,14.73
2019-05-03T06:29:51.968Z,14.00
2019-05-03T06:32:22.190Z,14.60
2019-05-03T06:34:50.848Z,17.23
2019-05-03T06:37:21.139Z,20.80
2019-05-03T06:39:49.789Z,16.03
2019-05-03T06:42:19.774Z,15.50
2019-05-03T06:44:48.744Z,17.03
2019-05-03T06:47:17.367Z,19.33
2019-05-03T06:49:48.446Z,16.30
2019-05-03T06:52:19.680Z,20.17
2019-05-03T06:54:46.663Z,16.33
2019-05-03T06:57:18.339Z,18.50
2019-05-03T06:59:51.439Z,16.07
2019-05-03T07:02:25.563Z,15.00
2019-05-03T07:05:05.631Z,20.47
2019-05-03T07:07:35.921Z,20.17
2019-05-03T07:10:07.951Z,18.23
2019-05-03T07:12:54.782Z,20.77
2019-05-03T07:15:25.164Z,25.13
2019-05-03T07:17:55.593Z,20.97
2019-05-03T07:20:25.555Z,19.03
2019-05-03T07:22:55.832Z,25.30
2019-05-03T07:25:25.678Z,20.23
2019-05-03T07:27:55.573Z,18.10
2019-05-03T07:30:25.032Z,22.20
2019-05-03T07:32:55.318Z,21.80
2019-05-03T07:35:25.154Z,20.47
2019-05-03T07:37:55.303Z,22.73
2019-05-03T07:40:25.322Z,20.77
2019-05-03T07:42:55.458Z,21.27
2019-05-03T07:45:25.384Z,23.33
2019-05-03T07:47:55.886Z,22.47
2019-05-03T07:50:25.758Z,20.93
2019-05-03T07:52:55.516Z,22.73
2019-05-03T07:55:42.831Z,22.73
2019-05-03T07:58:14.912Z,22.07
2019-05-03T08:00:44.552Z,22.87
2019-05-03T08:03:15.295Z,24.37
2019-05-03T08:05:45.415Z,24.37
2019-05-03T08:08:14.909Z,23.10
2019-05-03T08:10:44.946Z,23.93
2019-05-03T08:13:15.121Z,20.40
2019-05-03T08:15:45.182Z,23.43
2019-05-03T08:18:15.291Z,23.03
2019-05-03T08:20:45.289Z,23.27
2019-05-03T08:23:26.318Z,21.73
2019-05-03T08:25:44.680Z,21.17
2019-05-03T08:28:14.664Z,23.07
2019-05-03T08:31:04.756Z,20.67
2019-05-03T08:33:47.218Z,21.90
2019-05-03T08:36:16.039Z,21.10
2019-05-03T08:38:45.198Z,25.17
2019-05-03T08:41:15.631Z,23.10
2019-05-03T08:43:44.677Z,22.77
2019-05-03T08:46:14.865Z,27.07
2019-05-03T08:48:45.595Z,24.93
2019-05-03T08:51:14.866Z,25.70
2019-05-03T08:53:45.873Z,22.47
2019-05-03T08:56:15.631Z,19.80
2019-05-03T08:58:45.097Z,22.03
2019-05-03T09:01:14.806Z,21.07
2019-05-03T09:03:45.607Z,20.83
2019-05-03T09:06:15.495Z,18.97
2019-05-03T09:08:45.779Z,20.77
2019-05-03T09:11:16.467Z,21.17
2019-05-03T09:13:52.360Z,23.90
2019-05-03T09:16:21.064Z,23.63
2019-05-03T09:18:49.917Z,20.20
2019-05-03T09:21:18.639Z,25.17
2019-05-03T09:23:48.846Z,26.33
2019-05-03T09:26:17.467Z,19.50
2019-05-03T09:28:46.190Z,23.67
2019-05-03T09:31:15.649Z,20.60
2019-05-03T09:33:45.117Z,20.83
2019-05-03T09:36:14.763Z,25.17
2019-05-03T09:38:45.563Z,18.43
2019-05-03T09:41:15.033Z,18.10
2019-05-03T09:43:45.110Z,20.07
2019-05-03T09:46:14.597Z,19.20
2019-05-03T09:48:45.488Z,22.50
2019-05-03T09:51:14.795Z,23.60
2019-05-03T09:53:45.327Z,23.60
2019-05-03T09:56:15.521Z,21.67
2019-05-03T09:58:46.097Z,20.37
2019-05-03T10:01:15.667Z,20.70
2019-05-03T10:03:45.190Z,20.43
2019-05-03T10:06:15.404Z,19.50
2019-05-03T10:08:45.416Z,17.53
2019-05-03T10:11:15.586Z,19.40
2019-05-03T10:13:48.208Z,20.97
2019-05-03T10:16:15.813Z,18.87
2019-05-03T10:18:45.878Z,19.80
2019-05-03T10:21:15.070Z,16.63
2019-05-03T10:23:45.179Z,17.67
2019-05-03T10:26:14.909Z,16.97
2019-05-03T10:28:43.988Z,17.67
2019-05-03T10:31:12.713Z,19.30
2019-05-03T10:33:55.403Z,18.40
2019-05-03T10:36:24.952Z,21.33
2019-05-03T10:38:55.357Z,20.73
2019-05-03T10:41:25.114Z,19.63
2019-05-03T10:43:55.704Z,21.53
2019-05-03T10:46:25.085Z,18.50
2019-05-03T10:48:55.757Z,19.77
2019-05-03T10:51:25.889Z,18.53
2019-05-03T10:56:48.210Z,18.97
2019-05-03T10:59:17.406Z,19.63
2019-05-03T11:01:50.133Z,19.60
2019-05-03T11:04:18.829Z,19.50
2019-05-03T11:06:47.578Z,18.83
2019-05-03T11:09:16.374Z,25.40
2019-05-03T11:11:45.414Z,20.03
2019-05-03T11:14:14.910Z,19.70
2019-05-03T11:16:46.025Z,16.47
2019-05-03T11:19:14.709Z,17.70
2019-05-03T11:21:45.337Z,15.77
2019-05-03T11:24:14.743Z,14.47
2019-05-03T11:26:45.505Z,17.00
2019-05-03T11:29:35.534Z,17.67
2019-05-03T11:32:11.135Z,19.80
2019-05-03T11:34:50.291Z,16.70
2019-05-03T11:37:36.033Z,22.47
2019-05-03T11:40:06.539Z,17.50
2019-05-03T11:42:35.472Z,19.40
2019-05-03T11:45:07.195Z,24.73
2019-05-03T11:47:35.832Z,21.97
2019-05-03T11:50:07.131Z,23.37
2019-05-03T11:52:36.026Z,23.33
2019-05-03T11:55:11.431Z,29.73
2019-05-03T11:57:36.660Z,23.03
2019-05-03T12:00:10.556Z,23.43
2019-05-03T12:02:41.000Z,21.00
2019-05-03T12:07:50.674Z,22.00
2019-05-03T12:10:32.076Z,21.00
2019-05-03T12:12:57.689Z,19.47
2019-05-03T12:15:26.568Z,19.87
2019-05-03T12:17:59.111Z,24.97
2019-05-03T12:20:28.965Z,20.03
2019-05-03T12:22:58.454Z,20.50
2019-05-03T12:25:28.044Z,18.13
2019-05-03T12:27:57.132Z,20.27
2019-05-03T12:30:27.776Z,16.27
2019-05-03T12:32:57.460Z,15.43
2019-05-03T12:35:26.155Z,15.57
2019-05-03T12:37:55.598Z,13.93
2019-05-03T12:40:25.514Z,14.60
2019-05-03T12:42:55.226Z,15.00
2019-05-03T12:45:24.771Z,15.33
2019-05-03T12:47:55.730Z,14.60
2019-05-03T12:50:25.205Z,16.47
2019-05-03T12:52:55.394Z,16.70
2019-05-03T12:55:24.786Z,16.13
2019-05-03T12:57:55.418Z,17.50
2019-05-03T13:00:28.891Z,15.60
2019-05-03T13:02:59.282Z,14.47
2019-05-03T13:05:28.675Z,14.10
2019-05-03T13:08:15.467Z,15.80
2019-05-03T13:10:45.353Z,17.17
2019-05-03T13:13:14.646Z,14.97
2019-05-03T13:15:43.412Z,15.13
2019-05-03T13:18:12.059Z,14.47
2019-05-03T13:20:40.784Z,11.93
2019-05-03T13:23:12.658Z,11.13
2019-05-03T13:25:39.818Z,8.00
2019-05-03T13:28:08.366Z,6.50
2019-05-03T13:30:37.218Z,6.63
2019-05-03T13:33:05.951Z,7.00
2019-05-03T13:35:35.185Z,6.43
2019-05-03T13:38:04.055Z,6.00
2019-05-03T13:40:32.726Z,6.13
2019-05-03T13:43:03.734Z,6.57
2019-05-03T13:45:31.775Z,10.17
2019-05-03T13:48:00.430Z,7.33
2019-05-03T13:50:29.208Z,7.43
2019-05-03T13:52:57.891Z,7.60
2019-05-03T13:55:26.559Z,8.63
2019-05-03T13:57:55.110Z,4.87
2019-05-03T14:00:24.703Z,6.23
2019-05-03T14:02:53.524Z,4.20
2019-05-03T14:05:24.446Z,4.23
2019-05-03T14:07:52.727Z,3.97
2019-05-03T14:10:21.430Z,5.13
2019-05-03T14:12:50.275Z,5.13
2019-05-03T14:15:19.227Z,5.40
2019-05-03T14:17:47.845Z,5.40
2019-05-03T14:20:22.463Z,5.00
2019-05-03T14:22:52.663Z,4.70
2019-05-03T14:25:21.363Z,5.83
2019-05-03T14:27:50.085Z,5.77
2019-05-03T14:30:18.985Z,5.60
2019-05-03T14:32:47.663Z,4.90
2019-05-03T14:35:16.468Z,4.40
2019-05-03T14:37:45.930Z,7.13
2019-05-03T14:40:15.403Z,5.33
2019-05-03T14:42:44.655Z,6.00
2019-05-03T14:45:15.132Z,5.83
2019-05-03T14:47:43.816Z,7.23
2019-05-03T14:50:14.780Z,4.37
2019-05-03T14:52:42.943Z,5.10
2019-05-03T14:55:19.236Z,6.07
2019-05-03T14:57:58.569Z,4.73
2019-05-03T15:00:28.924Z,6.97
2019-05-03T15:02:59.226Z,7.83
2019-05-03T15:05:27.903Z,6.23
2019-05-03T15:07:56.678Z,6.30
2019-05-03T15:10:25.364Z,6.57
2019-05-03T15:12:55.658Z,8.03
2019-05-03T15:15:25.124Z,9.40
2019-05-03T15:17:55.075Z,14.07
2019-05-03T15:20:25.498Z,23.43
2019-05-03T15:22:54.852Z,29.57
2019-05-03T15:25:25.053Z,32.03
2019-05-03T15:27:55.434Z,30.20
2019-05-03T15:30:25.558Z,30.40
2019-05-03T15:33:00.202Z,29.87
2019-05-03T15:35:25.863Z,25.23
2019-05-03T15:37:55.819Z,20.40
2019-05-03T15:40:25.103Z,20.93
2019-05-03T15:42:55.892Z,24.37
2019-05-03T15:45:28.985Z,32.83
2019-05-03T15:48:08.163Z,37.23
2019-05-03T15:50:37.613Z,35.73
2019-05-03T15:53:06.611Z,24.20
2019-05-03T15:55:35.343Z,15.17
2019-05-03T15:58:04.776Z,13.70
2019-05-03T16:00:33.757Z,10.93
2019-05-03T16:03:08.980Z,13.27
2019-05-03T16:05:32.858Z,14.67
2019-05-03T16:08:01.511Z,17.83
2019-05-03T16:10:30.220Z,17.20
2019-05-03T16:12:58.850Z,17.67
2019-05-03T16:15:27.551Z,18.50
2019-05-03T16:17:56.330Z,15.40
2019-05-03T16:20:25.271Z,16.40
2019-05-03T16:22:54.546Z,19.20
2019-05-03T16:25:25.074Z,19.07
2019-05-03T16:27:55.725Z,17.50
2019-05-03T16:30:38.197Z,16.17
2019-05-03T16:33:06.864Z,11.23
2019-05-03T16:35:37.831Z,9.93
2019-05-03T16:38:06.215Z,10.13
2019-05-03T16:40:35.002Z,12.43
2019-05-03T16:43:03.731Z,13.80
2019-05-03T16:45:32.373Z,8.67
2019-05-03T16:48:01.085Z,7.57
2019-05-03T16:50:29.785Z,9.37
2019-05-03T16:53:00.023Z,8.03
2019-05-03T16:55:28.592Z,8.43
2019-05-03T16:57:57.413Z,10.57
2019-05-03T17:00:26.206Z,14.93
2019-05-03T17:02:55.184Z,10.77
2019-05-03T17:05:25.600Z,12.13
2019-05-03T17:07:55.907Z,13.20
2019-05-03T17:10:34.866Z,8.87
2019-05-03T17:13:05.506Z,9.87
2019-05-03T17:15:35.336Z,8.97
2019-05-03T17:18:04.027Z,12.67
2019-05-03T17:20:34.748Z,12.47
2019-05-03T17:23:04.491Z,9.23
2019-05-03T17:25:35.015Z,7.23
2019-05-03T17:28:05.030Z,6.10
2019-05-03T17:30:37.220Z,5.53
2019-05-03T17:33:04.609Z,6.43
2019-05-03T17:35:34.602Z,5.73
2019-05-03T17:38:05.172Z,8.07
2019-05-03T17:40:47.739Z,6.53
2019-05-03T17:43:23.919Z,7.87
2019-05-03T17:45:56.863Z,6.50
2019-05-03T17:48:25.439Z,7.87
2019-05-03T17:50:55.066Z,7.00
2019-05-03T17:53:31.636Z,6.77
2019-05-03T17:56:20.321Z,7.03
2019-05-03T17:58:59.826Z,5.37
2019-05-03T18:01:46.247Z,5.17
2019-05-03T18:04:16.648Z,8.37
2019-05-03T18:07:04.586Z,6.03
2019-05-03T18:09:35.045Z,6.77
2019-05-03T18:12:05.404Z,6.33
2019-05-03T18:14:34.474Z,5.43
2019-05-03T18:17:05.515Z,4.97
2019-05-03T18:19:34.310Z,5.40
2019-05-03T18:22:05.238Z,9.63
2019-05-03T18:24:45.516Z,8.47
2019-05-03T18:27:15.016Z,6.87
2019-05-03T18:29:44.937Z,6.60
2019-05-03T18:32:14.732Z,7.00
2019-05-03T18:34:45.382Z,7.20
2019-05-03T18:37:15.238Z,5.07
2019-05-03T18:39:45.357Z,6.23
2019-05-03T18:42:15.787Z,7.20
2019-05-03T18:44:46.158Z,7.47
2019-05-03T18:47:19.443Z,8.67
2019-05-03T18:49:48.234Z,6.30
2019-05-03T18:52:17.019Z,7.17
2019-05-03T18:54:45.803Z,6.17
2019-05-03T18:57:15.613Z,6.67
2019-05-03T18:59:47.408Z,6.67
2019-05-03T19:02:16.195Z,6.30
2019-05-03T19:04:49.488Z,7.67
2019-05-03T19:07:21.269Z,7.13
2019-05-03T19:09:51.638Z,6.93
2019-05-03T19:12:37.582Z,6.23
2019-05-03T19:15:07.831Z,7.00
2019-05-03T19:17:40.550Z,6.57
2019-05-03T19:20:11.103Z,8.17
2019-05-03T19:22:40.607Z,7.30
2019-05-03T19:25:09.335Z,9.17
2019-05-03T19:27:38.196Z,9.03
2019-05-03T19:30:08.756Z,5.30
2019-05-03T19:32:37.469Z,6.80
2019-05-03T19:35:08.071Z,7.90
2019-05-03T19:37:36.778Z,5.53
2019-05-03T19:40:06.622Z,7.77
2019-05-03T19:42:36.831Z,7.87
2019-05-03T19:45:06.392Z,11.13
2019-05-03T19:47:35.386Z,7.87
2019-05-03T19:50:06.210Z,9.47
2019-05-03T19:52:48.923Z,10.87
2019-05-03T19:55:17.669Z,11.20
2019-05-03T19:58:05.682Z,10.03
2019-05-03T20:00:48.391Z,9.83
2019-05-03T20:03:35.356Z,9.27
2019-05-03T20:06:17.765Z,8.60
2019-05-03T20:08:49.164Z,7.53
2019-05-03T20:11:18.428Z,6.90
2019-05-03T20:13:47.387Z,7.47
2019-05-03T20:16:16.213Z,8.73
2019-05-03T20:18:45.515Z,8.43
2019-05-03T20:21:15.300Z,7.90
2019-05-03T20:23:44.714Z,10.90
2019-05-03T20:26:15.111Z,11.07
2019-05-03T20:28:44.869Z,8.50
2019-05-03T20:31:14.336Z,12.67
2019-05-03T20:33:43.024Z,8.40
2019-05-03T20:36:12.820Z,8.00
2019-05-03T20:38:41.727Z,12.60
2019-05-03T20:41:10.463Z,9.33
2019-05-03T20:43:51.200Z,10.67
2019-05-03T20:46:25.450Z,8.27
2019-05-03T20:48:56.068Z,9.47
2019-05-03T20:51:25.179Z,8.83
2019-05-03T20:53:55.362Z,9.97
2019-05-03T20:56:24.622Z,11.90
2019-05-03T20:58:54.964Z,10.73
2019-05-03T21:01:25.640Z,8.07
2019-05-03T21:03:54.433Z,11.07
2019-05-03T21:06:35.175Z,11.10
2019-05-03T21:08:56.159Z,9.97
2019-05-03T21:11:25.179Z,10.77
2019-05-03T21:13:53.939Z,9.50
2019-05-03T21:16:39.615Z,8.07
2019-05-03T21:19:13.994Z,9.90
2019-05-03T21:21:44.591Z,5.80
2019-05-03T21:24:20.782Z,8.53
2019-05-03T21:26:49.536Z,6.70
2019-05-03T21:29:18.245Z,7.13
2019-05-03T21:31:46.851Z,6.20
2019-05-03T21:34:15.503Z,7.83
2019-05-03T21:36:45.316Z,7.47
2019-05-03T21:39:14.621Z,8.03
2019-05-03T21:41:45.089Z,7.10
2019-05-03T21:44:15.508Z,8.67
2019-05-03T21:46:49.065Z,5.40
2019-05-03T21:49:19.350Z,8.20
2019-05-03T21:51:48.012Z,6.73
2019-05-03T21:54:16.696Z,6.10
2019-05-03T21:56:45.474Z,7.40
2019-05-03T21:59:14.254Z,5.53
2019-05-03T22:01:45.614Z,8.00
2019-05-03T22:04:15.621Z,6.67
2019-05-03T22:06:44.539Z,7.03
2019-05-03T22:09:13.271Z,9.23
2019-05-03T22:11:41.894Z,6.13
2019-05-03T22:14:12.173Z,6.40
2019-05-03T22:16:45.400Z,4.27
2019-05-03T22:19:16.316Z,7.07
2019-05-03T22:21:46.158Z,6.23
2019-05-03T22:24:22.514Z,8.57
2019-05-03T22:26:53.000Z,5.53
2019-05-03T22:29:21.696Z,5.70
2019-05-03T22:31:50.397Z,6.83
2019-05-03T22:34:19.110Z,6.97
2019-05-03T22:36:47.812Z,11.33
2019-05-03T22:39:16.498Z,5.87
2019-05-03T22:41:45.158Z,7.93
2019-05-03T22:44:14.751Z,9.13
2019-05-03T22:46:44.595Z,6.17
2019-05-03T22:49:15.486Z,5.30
2019-05-03T22:51:45.172Z,6.57
2019-05-03T22:54:16.902Z,5.00
2019-05-03T22:56:45.688Z,8.30
2019-05-03T22:59:14.920Z,5.67
2019-05-03T23:01:45.815Z,6.43
2019-05-03T23:04:14.623Z,4.40
2019-05-03T23:06:46.621Z,7.43
2019-05-03T23:09:15.874Z,6.17
2019-05-03T23:11:44.871Z,7.83
2019-05-03T23:14:15.119Z,6.07
2019-05-03T23:16:44.808Z,6.00
2019-05-03T23:19:14.932Z,7.83
2019-05-03T23:21:49.390Z,8.30
2019-05-03T23:24:18.145Z,8.43
2019-05-03T23:26:47.258Z,6.80
2019-05-03T23:29:15.812Z,7.63
2019-05-03T23:31:44.847Z,5.63
2019-05-03T23:34:13.620Z,6.93
2019-05-03T23:36:42.307Z,7.13
2019-05-03T23:39:11.018Z,6.13
2019-05-03T23:41:39.751Z,5.23
2019-05-03T23:44:08.318Z,8.30
2019-05-03T23:46:41.628Z,9.87
2019-05-03T23:49:10.317Z,6.17
2019-05-03T23:51:44.421Z,6.77
2019-05-03T23:54:14.964Z,6.07
2019-05-03T23:56:45.686Z,8.20
2019-05-03T23:59:14.934Z,6.80
